TimeCDT,TemperatureF,Dew PointF,Humidity,Sea Level PressureIn,VisibilityMPH,Wind Direction,Wind SpeedMPH,Gust SpeedMPH,PrecipitationIn,Events,Conditions,WindDirDegrees,DateUTC
12:15 AM,38.1,33.1,82,29.90,10.0,NNW,3.5,-,N/A,,Mostly Cloudy,340,2012-11-02 05:15:00
12:35 AM,38.5,32.0,78,29.90,10.0,Calm,Calm,-,N/A,,Mostly Cloudy,0,2012-11-02 05:35:00
12:55 AM,38.8,32.0,76,29.90,10.0,NNW,3.5,-,N/A,,Mostly Cloudy,330,2012-11-02 05:55:00
1:15 AM,40.1,32.0,73,29.91,10.0,NW,3.5,-,N/A,,Overcast,320,2012-11-02 06:15:00
1:35 AM,36.3,31.8,84,29.91,10.0,NW,3.5,-,N/A,,Overcast,310,2012-11-02 06:35:00
1:55 AM,38.7,32.0,77,29.92,10.0,NW,3.5,-,N/A,,Mostly Cloudy,310,2012-11-02 06:55:00
2:15 AM,37.8,31.6,79,29.93,10.0,NW,4.6,-,N/A,,Mostly Cloudy,310,2012-11-02 07:15:00
2:35 AM,37.6,30.9,77,29.93,10.0,NW,4.6,-,N/A,,Scattered Clouds,310,2012-11-02 07:35:00
2:55 AM,37.8,30.9,76,29.94,10.0,NW,5.8,-,N/A,,Clear,320,2012-11-02 07:55:00
3:15 AM,37.4,30.7,77,29.94,10.0,NW,4.6,-,N/A,,Clear,320,2012-11-02 08:15:00
3:35 AM,37.2,30.2,76,29.95,10.0,NNW,5.8,-,N/A,,Clear,330,2012-11-02 08:35:00
3:55 AM,37.0,30.2,76,29.95,10.0,NW,5.8,-,N/A,,Clear,320,2012-11-02 08:55:00
4:15 AM,36.9,30.2,77,29.95,10.0,NNW,6.9,-,N/A,,Clear,330,2012-11-02 09:15:00
4:35 AM,36.7,30.7,79,29.95,10.0,NNW,6.9,-,N/A,,Clear,340,2012-11-02 09:35:00
4:55 AM,36.5,30.7,80,29.96,10.0,North,5.8,-,N/A,,Clear,350,2012-11-02 09:55:00
5:15 AM,35.6,30.6,82,29.97,10.0,NNW,5.8,-,N/A,,Clear,340,2012-11-02 10:15:00
5:35 AM,35.8,30.9,82,29.98,10.0,NNW,6.9,-,N/A,,Clear,330,2012-11-02 10:35:00
5:55 AM,35.8,30.7,82,29.99,10.0,NNW,6.9,-,N/A,,Clear,330,2012-11-02 10:55:00
6:15 AM,35.8,30.2,80,30.00,10.0,NNW,6.9,-,N/A,,Clear,330,2012-11-02 11:15:00
6:35 AM,35.6,30.0,80,30.01,10.0,NNW,8.1,-,N/A,,Clear,330,2012-11-02 11:35:00
6:55 AM,34.7,29.7,82,30.01,10.0,NW,6.9,-,N/A,,Clear,320,2012-11-02 11:55:00
7:15 AM,33.3,29.8,87,30.02,10.0,NW,6.9,-,N/A,,Clear,320,2012-11-02 12:15:00
7:35 AM,34.2,29.8,84,30.02,10.0,NNW,9.2,-,N/A,,Clear,340,2012-11-02 12:35:00
7:55 AM,34.7,29.8,82,30.03,10.0,NNW,6.9,-,N/A,,Clear,330,2012-11-02 12:55:00
8:15 AM,35.6,30.2,81,30.04,10.0,NNW,8.1,-,N/A,,Clear,340,2012-11-02 13:15:00
8:35 AM,36.7,30.7,79,30.05,10.0,NNW,9.2,-,N/A,,Clear,340,2012-11-02 13:35:00
8:55 AM,38.1,31.3,76,30.06,10.0,NNW,8.1,-,N/A,,Clear,340,2012-11-02 13:55:00
9:15 AM,39.0,31.5,74,30.07,10.0,North,6.9,-,N/A,,Clear,350,2012-11-02 14:15:00
9:35 AM,40.5,32.0,72,30.06,10.0,North,5.8,-,N/A,,Clear,350,2012-11-02 14:35:00
9:55 AM,41.7,32.2,69,30.07,10.0,North,5.8,-,N/A,,Clear,350,2012-11-02 14:55:00
10:15 AM,43.2,32.7,67,30.07,10.0,North,6.9,-,N/A,,Clear,350,2012-11-02 15:15:00
10:35 AM,43.7,32.5,65,30.08,10.0,North,8.1,-,N/A,,Clear,10,2012-11-02 15:35:00
10:55 AM,44.6,32.2,62,30.08,10.0,North,5.8,-,N/A,,Clear,350,2012-11-02 15:55:00
11:15 AM,45.5,32.2,60,30.08,10.0,NW,3.5,-,N/A,,Clear,310,2012-11-02 16:15:00
11:35 AM,45.7,31.5,58,30.09,10.0,NNW,8.1,-,N/A,,Clear,330,2012-11-02 16:35:00
11:55 AM,46.9,30.6,53,30.09,10.0,North,4.6,-,N/A,,Clear,360,2012-11-02 16:55:00
12:15 PM,47.3,28.0,47,30.08,10.0,NNW,5.8,-,N/A,,Clear,340,2012-11-02 17:15:00
12:35 PM,47.1,27.0,46,30.08,10.0,NNW,6.9,-,N/A,,Clear,330,2012-11-02 17:35:00
12:55 PM,48.2,25.2,41,30.08,10.0,North,5.8,-,N/A,,Clear,360,2012-11-02 17:55:00
1:15 PM,47.8,24.1,39,30.07,10.0,NW,6.9,-,N/A,,Clear,310,2012-11-02 18:15:00
1:35 PM,48.2,24.6,40,30.07,10.0,North,4.6,-,N/A,,Clear,350,2012-11-02 18:35:00
1:55 PM,48.7,24.3,38,30.07,10.0,NNW,4.6,-,N/A,,Clear,340,2012-11-02 18:55:00
2:15 PM,48.7,24.1,38,30.07,10.0,North,6.9,-,N/A,,Clear,350,2012-11-02 19:15:00
2:35 PM,48.2,24.1,39,30.07,10.0,NNW,5.8,-,N/A,,Clear,340,2012-11-02 19:35:00
2:55 PM,48.4,24.1,39,30.07,10.0,NNW,3.5,-,N/A,,Clear,340,2012-11-02 19:55:00
3:15 PM,49.1,23.0,36,30.07,10.0,North,4.6,-,N/A,,Clear,360,2012-11-02 20:15:00
3:35 PM,48.4,24.3,39,30.07,10.0,North,5.8,-,N/A,,Clear,360,2012-11-02 20:35:00
3:55 PM,48.6,24.1,38,30.08,10.0,NNE,4.6,-,N/A,,Clear,30,2012-11-02 20:55:00
4:15 PM,48.4,25.9,42,30.08,10.0,North,4.6,-,N/A,,Clear,360,2012-11-02 21:15:00
4:35 PM,47.7,27.0,45,30.08,10.0,NNE,3.5,-,N/A,,Clear,20,2012-11-02 21:35:00
4:55 PM,47.3,27.9,47,30.08,10.0,North,4.6,-,N/A,,Clear,10,2012-11-02 21:55:00
5:15 PM,46.4,28.0,49,30.08,10.0,North,4.6,-,N/A,,Clear,360,2012-11-02 22:15:00
5:35 PM,45.3,28.0,51,30.08,10.0,North,3.5,-,N/A,,Clear,10,2012-11-02 22:35:00
5:55 PM,42.8,32.9,68,30.08,10.0,NE,6.9,-,N/A,,Clear,40,2012-11-02 22:55:00
6:15 PM,42.1,32.9,70,30.09,10.0,NE,8.1,-,N/A,,Clear,40,2012-11-02 23:15:00
6:35 PM,40.8,32.9,73,30.10,10.0,ENE,4.6,-,N/A,,Clear,70,2012-11-02 23:35:00
6:55 PM,40.3,33.4,77,30.10,10.0,ENE,6.9,-,N/A,,Clear,60,2012-11-02 23:55:00
7:15 PM,39.6,33.8,80,30.10,10.0,NE,5.8,-,N/A,,Clear,50,2012-11-03 00:15:00
7:35 PM,39.6,33.8,80,30.11,10.0,NE,8.1,-,N/A,,Clear,50,2012-11-03 00:35:00
7:55 PM,39.4,33.4,79,30.11,10.0,NE,6.9,-,N/A,,Clear,50,2012-11-03 00:55:00
8:15 PM,37.9,32.9,82,30.11,10.0,NE,5.8,-,N/A,,Clear,50,2012-11-03 01:15:00
8:35 PM,36.9,32.4,84,30.11,10.0,NE,5.8,-,N/A,,Clear,50,2012-11-03 01:35:00
8:55 PM,36.5,32.0,84,30.11,10.0,NE,4.6,-,N/A,,Clear,50,2012-11-03 01:55:00
9:15 PM,34.9,31.8,89,30.11,10.0,NE,3.5,-,N/A,,Clear,50,2012-11-03 02:15:00
9:35 PM,35.8,32.0,86,30.12,10.0,Calm,Calm,-,N/A,,Clear,0,2012-11-03 02:35:00
9:55 PM,35.8,32.0,86,30.13,10.0,Calm,Calm,-,N/A,,Clear,0,2012-11-03 02:55:00
10:15 PM,34.9,32.0,89,30.14,10.0,Calm,Calm,-,N/A,,Clear,0,2012-11-03 03:15:00
10:35 PM,35.6,32.0,87,30.14,10.0,Calm,Calm,-,N/A,,Clear,0,2012-11-03 03:35:00
10:55 PM,34.3,32.0,91,30.14,10.0,Calm,Calm,-,N/A,,Clear,0,2012-11-03 03:55:00
11:15 PM,34.7,32.0,90,30.14,10.0,NE,3.5,-,N/A,,Clear,50,2012-11-03 04:15:00
11:35 PM,35.4,32.2,88,30.14,10.0,Calm,Calm,-,N/A,,Clear,0,2012-11-03 04:35:00
11:55 PM,35.6,33.3,91,30.13,10.0,ENE,4.6,-,N/A,,Clear,70,2012-11-03 04:55:00